createdAt,value
2019-06-25T00:00:44.450Z,23.84
2019-06-25T00:02:37.454Z,23.73
2019-06-25T00:03:37.520Z,23.73
2019-06-25T00:05:30.552Z,23.68
2019-06-25T00:06:30.602Z,23.68
2019-06-25T00:08:23.585Z,23.68
2019-06-25T00:09:23.657Z,23.61
2019-06-25T00:11:16.684Z,23.55
2019-06-25T00:12:16.721Z,23.65
2019-06-25T00:14:09.718Z,23.63
2019-06-25T00:15:09.785Z,23.58
2019-06-25T00:17:02.918Z,23.56
2019-06-25T00:18:02.848Z,23.46
2019-06-25T00:19:55.851Z,23.36
2019-06-25T00:20:55.912Z,23.27
2019-06-25T00:22:48.946Z,23.34
2019-06-25T00:23:48.980Z,23.31
2019-06-25T00:25:41.994Z,23.32
2019-06-25T00:26:42.049Z,23.32
2019-06-25T00:28:35.068Z,23.40
2019-06-25T00:29:35.115Z,23.28
2019-06-25T00:31:28.125Z,23.32
2019-06-25T00:32:28.181Z,23.32
2019-06-25T00:34:21.199Z,23.21
2019-06-25T00:35:21.246Z,23.13
2019-06-25T00:37:14.269Z,23.23
2019-06-25T00:38:14.309Z,23.20
2019-06-25T00:40:07.329Z,23.12
2019-06-25T00:41:07.373Z,23.08
2019-06-25T00:43:00.437Z,23.00
2019-06-25T00:44:00.444Z,23.00
2019-06-25T00:45:53.476Z,23.02
2019-06-25T00:46:53.520Z,23.06
2019-06-25T00:48:46.529Z,23.03
2019-06-25T00:49:46.597Z,23.05
2019-06-25T00:51:39.613Z,22.96
2019-06-25T00:52:39.656Z,22.96
2019-06-25T00:54:32.674Z,22.99
2019-06-25T00:55:32.723Z,22.85
2019-06-25T00:57:25.747Z,22.81
2019-06-25T00:58:25.788Z,22.85
2019-06-25T01:00:18.786Z,22.84
2019-06-25T01:01:18.854Z,22.91
2019-06-25T01:03:11.876Z,22.76
2019-06-25T01:04:11.923Z,22.80
2019-06-25T01:06:04.924Z,22.76
2019-06-25T01:07:04.994Z,22.73
2019-06-25T01:08:58.027Z,22.78
2019-06-25T01:09:58.058Z,22.68
2019-06-25T01:11:51.064Z,22.75
2019-06-25T01:12:51.133Z,22.65
2019-06-25T01:14:44.147Z,22.65
2019-06-25T01:15:44.194Z,22.65
2019-06-25T01:17:37.237Z,22.68
2019-06-25T01:18:37.269Z,22.60
2019-06-25T01:20:30.261Z,22.53
2019-06-25T01:21:30.366Z,22.55
2019-06-25T01:23:23.351Z,22.51
2019-06-25T01:24:23.392Z,22.51
2019-06-25T01:26:16.389Z,22.53
2019-06-25T01:27:16.450Z,22.48
2019-06-25T01:29:09.486Z,22.41
2019-06-25T01:30:09.536Z,22.44
2019-06-25T01:32:02.549Z,22.36
2019-06-25T01:33:02.591Z,22.39
2019-06-25T01:34:55.616Z,22.43
2019-06-25T01:35:55.666Z,22.29
2019-06-25T01:37:48.686Z,22.28
2019-06-25T01:38:48.721Z,22.32
2019-06-25T01:40:41.714Z,22.33
2019-06-25T01:41:41.782Z,22.30
2019-06-25T01:43:34.809Z,22.33
2019-06-25T01:44:34.846Z,22.32
2019-06-25T01:46:27.851Z,22.33
2019-06-25T01:47:27.913Z,22.36
2019-06-25T01:49:20.931Z,22.30
2019-06-25T01:50:20.974Z,22.28
2019-06-25T01:52:13.971Z,22.29
2019-06-25T01:53:14.035Z,22.25
2019-06-25T01:55:07.113Z,22.23
2019-06-25T01:56:07.098Z,22.11
2019-06-25T01:58:00.097Z,22.10
2019-06-25T01:59:00.162Z,22.15
2019-06-25T02:00:53.189Z,22.22
2019-06-25T02:01:53.229Z,22.14
2019-06-25T02:03:46.321Z,22.14
2019-06-25T02:04:48.362Z,22.10
2019-06-25T02:06:39.324Z,22.10
2019-06-25T02:07:39.356Z,22.17
2019-06-25T02:09:32.364Z,22.13
2019-06-25T02:10:32.425Z,22.13
2019-06-25T02:12:25.468Z,22.07
2019-06-25T02:13:25.495Z,21.98
2019-06-25T02:15:18.524Z,22.08
2019-06-25T02:16:18.577Z,22.11
2019-06-25T02:18:11.561Z,22.11
2019-06-25T02:19:11.619Z,22.00
2019-06-25T02:21:04.648Z,22.02
2019-06-25T02:22:04.683Z,22.13
2019-06-25T02:23:57.689Z,22.04
2019-06-25T02:24:57.750Z,22.06
2019-06-25T02:26:50.778Z,22.06
2019-06-25T02:27:50.817Z,21.98
2019-06-25T02:29:43.816Z,21.96
2019-06-25T02:31:01.530Z,21.95
2019-06-25T02:32:36.928Z,21.88
2019-06-25T02:33:36.942Z,21.88
2019-06-25T02:35:29.966Z,21.89
2019-06-25T02:36:30.006Z,21.70
2019-06-25T02:38:23.040Z,21.75
2019-06-25T02:39:23.069Z,21.73
2019-06-25T02:41:16.065Z,21.69
2019-06-25T02:42:16.187Z,21.69
2019-06-25T02:44:09.158Z,21.72
2019-06-25T02:45:09.209Z,21.60
2019-06-25T02:47:02.195Z,21.69
2019-06-25T02:48:02.262Z,21.70
2019-06-25T02:49:55.285Z,21.62
2019-06-25T02:50:55.371Z,21.60
2019-06-25T02:52:48.321Z,21.52
2019-06-25T02:53:48.383Z,21.51
2019-06-25T02:55:41.404Z,21.54
2019-06-25T02:56:41.457Z,21.55
2019-06-25T02:58:34.453Z,21.54
2019-06-25T02:59:34.518Z,21.54
2019-06-25T03:01:29.646Z,21.50
2019-06-25T03:02:27.583Z,21.50
2019-06-25T03:04:20.645Z,21.48
2019-06-25T03:05:20.646Z,21.48
2019-06-25T03:07:13.644Z,21.43
2019-06-25T03:08:13.728Z,21.46
2019-06-25T03:10:06.748Z,21.40
2019-06-25T03:11:06.786Z,21.39
2019-06-25T03:12:59.783Z,21.45
2019-06-25T03:13:59.850Z,21.37
2019-06-25T03:15:52.858Z,21.46
2019-06-25T03:16:52.917Z,21.39
2019-06-25T03:18:45.908Z,21.43
2019-06-25T03:19:45.967Z,21.37
2019-06-25T03:21:38.981Z,21.36
2019-06-25T03:22:39.037Z,21.29
2019-06-25T03:24:32.036Z,21.45
2019-06-25T03:25:32.110Z,21.43
2019-06-25T03:27:25.098Z,21.45
2019-06-25T03:28:25.150Z,21.35
2019-06-25T03:30:18.196Z,21.40
2019-06-25T03:31:18.202Z,21.48
2019-06-25T03:33:11.218Z,21.33
2019-06-25T03:34:11.264Z,21.40
2019-06-25T03:36:04.276Z,21.29
2019-06-25T03:37:04.320Z,21.25
2019-06-25T03:38:57.324Z,21.40
2019-06-25T03:39:57.394Z,21.39
2019-06-25T03:41:50.401Z,21.40
2019-06-25T03:42:50.434Z,21.42
2019-06-25T03:44:43.446Z,21.48
2019-06-25T03:45:43.491Z,21.46
2019-06-25T03:47:36.484Z,21.37
2019-06-25T03:48:36.549Z,21.42
2019-06-25T03:50:29.572Z,21.45
2019-06-25T03:51:31.641Z,21.35
2019-06-25T03:53:22.627Z,21.39
2019-06-25T03:54:22.681Z,21.39
2019-06-25T03:56:15.780Z,21.46
2019-06-25T03:57:15.734Z,21.48
2019-06-25T03:59:08.724Z,21.55
2019-06-25T04:00:08.787Z,21.60
2019-06-25T04:02:16.550Z,21.51
2019-06-25T04:03:02.012Z,21.58
2019-06-25T04:04:54.847Z,21.51
2019-06-25T04:05:54.910Z,21.55
2019-06-25T04:07:47.943Z,21.60
2019-06-25T04:08:47.970Z,21.64
2019-06-25T04:10:40.967Z,21.69
2019-06-25T04:11:41.037Z,21.62
2019-06-25T04:13:34.131Z,21.62
2019-06-25T04:14:34.109Z,21.67
2019-06-25T04:16:27.092Z,21.75
2019-06-25T04:17:27.161Z,21.85
2019-06-25T04:19:20.168Z,21.76
2019-06-25T04:20:20.219Z,21.80
2019-06-25T04:22:13.214Z,21.75
2019-06-25T04:23:13.286Z,21.83
2019-06-25T04:25:06.301Z,21.91
2019-06-25T04:26:06.352Z,21.98
2019-06-25T04:27:59.346Z,22.00
2019-06-25T04:28:59.407Z,22.04
2019-06-25T04:30:52.483Z,22.11
2019-06-25T04:31:52.468Z,22.14
2019-06-25T04:33:45.482Z,22.06
2019-06-25T04:34:45.532Z,22.18
2019-06-25T04:36:38.581Z,22.35
2019-06-25T04:37:38.594Z,22.39
2019-06-25T04:39:31.593Z,22.60
2019-06-25T04:40:31.654Z,22.59
2019-06-25T04:42:24.681Z,22.76
2019-06-25T04:43:24.733Z,22.73
2019-06-25T04:45:17.733Z,22.78
2019-06-25T04:46:17.788Z,22.94
2019-06-25T04:48:10.798Z,22.93
2019-06-25T04:49:10.847Z,22.99
2019-06-25T04:51:04.355Z,22.98
2019-06-25T04:52:04.655Z,22.94
2019-06-25T04:53:57.430Z,23.09
2019-06-25T04:54:57.479Z,23.03
2019-06-25T04:56:50.470Z,23.06
2019-06-25T04:57:50.541Z,23.17
2019-06-25T04:59:43.546Z,23.15
2019-06-25T05:00:43.600Z,23.23
2019-06-25T05:02:49.090Z,23.27
2019-06-25T05:03:36.663Z,23.31
2019-06-25T05:05:29.677Z,23.27
2019-06-25T05:06:29.727Z,23.18
2019-06-25T05:08:22.742Z,23.34
2019-06-25T05:09:22.814Z,23.32
2019-06-25T05:11:15.812Z,23.39
2019-06-25T05:12:15.865Z,23.32
2019-06-25T05:14:08.882Z,23.25
2019-06-25T05:15:08.954Z,23.32
2019-06-25T05:17:01.955Z,23.36
2019-06-25T05:18:02.003Z,23.44
2019-06-25T05:19:57.541Z,23.55
2019-06-25T05:20:55.067Z,23.58
2019-06-25T05:22:48.088Z,23.55
2019-06-25T05:23:48.143Z,23.58
2019-06-25T05:25:41.153Z,23.54
2019-06-25T05:26:41.202Z,23.47
2019-06-25T05:28:34.263Z,23.37
2019-06-25T05:29:34.306Z,23.34
2019-06-25T05:31:27.307Z,23.31
2019-06-25T05:32:27.376Z,23.27
2019-06-25T05:34:20.381Z,23.40
2019-06-25T05:35:20.432Z,23.43
2019-06-25T05:37:13.486Z,23.55
2019-06-25T05:38:13.506Z,23.56
2019-06-25T05:40:06.520Z,23.71
2019-06-25T05:41:06.564Z,23.63
2019-06-25T05:42:59.562Z,23.69
2019-06-25T05:43:59.636Z,23.78
2019-06-25T05:45:52.651Z,23.84
2019-06-25T05:46:52.697Z,24.01
2019-06-25T05:48:45.699Z,24.08
2019-06-25T05:49:45.763Z,24.16
2019-06-25T05:51:39.284Z,24.28
2019-06-25T05:52:39.334Z,24.42
2019-06-25T05:54:32.332Z,24.53
2019-06-25T05:55:32.399Z,24.69
2019-06-25T05:57:25.415Z,24.81
2019-06-25T05:58:25.465Z,24.93
2019-06-25T06:00:18.496Z,24.92
2019-06-25T06:01:18.540Z,25.06
2019-06-25T06:03:20.108Z,25.08
2019-06-25T06:04:11.633Z,25.26
2019-06-25T06:06:04.610Z,25.28
2019-06-25T06:07:04.658Z,25.44
2019-06-25T06:08:57.667Z,25.63
2019-06-25T06:09:57.720Z,25.66
2019-06-25T06:11:50.746Z,26.07
2019-06-25T06:12:50.785Z,26.21
2019-06-25T06:14:43.806Z,26.80
2019-06-25T06:15:43.875Z,27.08
2019-06-25T06:17:36.894Z,27.51
2019-06-25T06:18:36.945Z,28.05
2019-06-25T06:20:29.948Z,29.54
2019-06-25T06:21:30.014Z,30.39
2019-06-25T06:23:23.038Z,30.03
2019-06-25T06:24:23.087Z,30.59
2019-06-25T06:26:18.853Z,32.16
2019-06-25T06:27:16.173Z,32.37
2019-06-25T06:29:09.205Z,32.83
2019-06-25T06:30:09.246Z,33.17
2019-06-25T06:32:02.253Z,33.14
2019-06-25T06:33:02.322Z,33.42
2019-06-25T06:34:55.346Z,32.67
2019-06-25T06:35:55.397Z,32.00
2019-06-25T06:37:48.435Z,31.31
2019-06-25T06:38:48.488Z,31.29
2019-06-25T06:40:41.495Z,31.77
2019-06-25T06:41:41.573Z,31.94
2019-06-25T06:43:34.574Z,32.40
2019-06-25T06:44:34.642Z,32.41
2019-06-25T06:46:27.666Z,32.29
2019-06-25T06:47:27.721Z,32.26
2019-06-25T06:49:20.736Z,32.45
2019-06-25T06:50:20.824Z,31.81
2019-06-25T06:52:15.055Z,32.11
2019-06-25T06:53:13.901Z,32.12
2019-06-25T06:55:06.908Z,31.62
2019-06-25T06:56:06.981Z,31.90
2019-06-25T06:58:00.022Z,32.29
2019-06-25T06:59:00.079Z,32.77
2019-06-25T07:00:53.115Z,32.68
2019-06-25T07:01:53.163Z,33.04
2019-06-25T07:03:52.947Z,33.86
2019-06-25T07:04:46.246Z,34.23
2019-06-25T07:06:39.256Z,34.58
2019-06-25T07:07:39.332Z,34.88
2019-06-25T07:09:32.363Z,34.58
2019-06-25T07:10:32.448Z,34.54
2019-06-25T07:12:25.471Z,33.99
2019-06-25T07:13:25.518Z,33.61
2019-06-25T07:15:18.532Z,33.45
2019-06-25T07:16:18.610Z,34.10
2019-06-25T07:18:11.639Z,34.81
2019-06-25T07:19:11.695Z,34.93
2019-06-25T07:21:04.708Z,35.34
2019-06-25T07:22:04.783Z,35.31
2019-06-25T07:23:57.833Z,35.11
2019-06-25T07:24:57.892Z,34.57
2019-06-25T07:26:50.922Z,33.83
2019-06-25T07:27:50.980Z,34.01
2019-06-25T07:29:44.027Z,34.60
2019-06-25T07:30:44.068Z,34.95
2019-06-25T07:32:39.015Z,35.60
2019-06-25T07:33:37.158Z,35.41
2019-06-25T07:35:30.174Z,35.73
2019-06-25T07:36:30.251Z,35.88
2019-06-25T07:38:23.285Z,35.83
2019-06-25T07:39:23.348Z,36.05
2019-06-25T07:41:16.361Z,36.31
2019-06-25T07:42:16.454Z,36.64
2019-06-25T07:44:09.473Z,36.57
2019-06-25T07:45:09.714Z,36.24
2019-06-25T07:47:02.550Z,36.45
2019-06-25T07:48:02.632Z,36.39
2019-06-25T07:49:55.675Z,35.92
2019-06-25T07:50:55.731Z,36.36
2019-06-25T07:52:48.776Z,36.54
2019-06-25T07:53:48.833Z,36.45
2019-06-25T07:55:41.871Z,36.98
2019-06-25T07:56:41.953Z,37.25
2019-06-25T07:58:34.989Z,36.65
2019-06-25T07:59:35.051Z,37.02
2019-06-25T08:01:28.086Z,36.92
2019-06-25T08:02:28.147Z,37.26
2019-06-25T08:04:25.501Z,37.78
2019-06-25T08:05:21.245Z,37.44
2019-06-25T08:07:14.268Z,37.42
2019-06-25T08:08:14.343Z,37.40
2019-06-25T08:10:07.385Z,38.02
2019-06-25T08:11:07.443Z,37.29
2019-06-25T08:13:00.486Z,36.51
2019-06-25T08:14:00.546Z,36.73
2019-06-25T08:15:53.642Z,37.37
2019-06-25T08:16:53.646Z,37.80
2019-06-25T08:18:46.697Z,36.81
2019-06-25T08:19:46.744Z,36.61
2019-06-25T08:21:39.778Z,36.80
2019-06-25T08:22:39.847Z,36.89
2019-06-25T08:24:32.889Z,36.65
2019-06-25T08:25:32.963Z,36.61
2019-06-25T08:27:26.029Z,37.63
2019-06-25T08:28:26.087Z,38.04
2019-06-25T08:30:19.089Z,37.90
2019-06-25T08:31:19.156Z,37.60
2019-06-25T08:33:12.192Z,37.77
2019-06-25T08:34:12.260Z,38.04
2019-06-25T08:36:05.300Z,38.21
2019-06-25T08:37:05.367Z,38.57
2019-06-25T08:38:58.523Z,39.90
2019-06-25T08:39:58.476Z,40.12
2019-06-25T08:41:51.522Z,39.77
2019-06-25T08:42:51.584Z,38.36
2019-06-25T08:44:44.635Z,38.33
2019-06-25T08:45:44.704Z,38.39
2019-06-25T08:47:37.746Z,39.22
2019-06-25T08:48:37.817Z,39.58
2019-06-25T08:50:30.843Z,38.77
2019-06-25T08:51:30.924Z,38.15
2019-06-25T08:53:23.985Z,37.92
2019-06-25T08:54:24.035Z,38.30
2019-06-25T08:56:17.074Z,39.15
2019-06-25T08:57:17.148Z,39.06
2019-06-25T08:59:10.184Z,39.18
2019-06-25T09:00:10.253Z,39.18
2019-06-25T09:02:03.299Z,38.95
2019-06-25T09:03:03.391Z,38.58
2019-06-25T09:04:58.629Z,38.67
2019-06-25T09:05:56.471Z,38.82
2019-06-25T09:07:49.499Z,39.46
2019-06-25T09:08:49.589Z,39.24
2019-06-25T09:10:42.920Z,39.09
2019-06-25T09:11:42.690Z,39.74
2019-06-25T09:13:35.735Z,40.34
2019-06-25T09:14:35.813Z,39.97
2019-06-25T09:16:28.864Z,39.19
2019-06-25T09:17:28.923Z,39.67
2019-06-25T09:19:21.954Z,39.49
2019-06-25T09:20:22.077Z,39.17
2019-06-25T09:22:15.095Z,39.04
2019-06-25T09:23:15.144Z,39.56
2019-06-25T09:25:08.175Z,39.70
2019-06-25T09:26:08.257Z,39.21
2019-06-25T09:28:01.297Z,39.19
2019-06-25T09:29:01.438Z,39.43
2019-06-25T09:30:54.431Z,38.96
2019-06-25T09:31:54.483Z,39.21
2019-06-25T09:33:47.522Z,38.99
2019-06-25T09:34:47.599Z,38.62
2019-06-25T09:36:40.636Z,38.23
2019-06-25T09:37:40.746Z,38.02
2019-06-25T09:39:33.765Z,36.47
2019-06-25T09:40:33.838Z,35.67
2019-06-25T09:42:26.889Z,35.30
2019-06-25T09:43:26.942Z,35.24
2019-06-25T09:45:19.995Z,35.00
2019-06-25T09:46:20.050Z,34.81
2019-06-25T09:48:13.091Z,35.05
2019-06-25T09:49:13.150Z,35.08
2019-06-25T09:51:06.688Z,34.85
2019-06-25T09:52:06.758Z,34.75
2019-06-25T09:53:59.789Z,34.93
2019-06-25T09:54:59.866Z,35.17
2019-06-25T09:56:52.877Z,34.83
2019-06-25T09:57:52.933Z,34.47
2019-06-25T09:59:45.954Z,34.61
2019-06-25T10:00:46.028Z,34.77
2019-06-25T10:02:39.056Z,34.78
2019-06-25T10:03:39.119Z,35.02
2019-06-25T10:05:32.225Z,35.00
2019-06-25T10:06:32.209Z,34.92
2019-06-25T10:08:25.244Z,34.50
2019-06-25T10:09:25.296Z,34.40
2019-06-25T10:11:18.334Z,34.27
2019-06-25T10:12:18.409Z,34.38
2019-06-25T10:14:11.437Z,34.62
2019-06-25T10:15:11.492Z,34.57
2019-06-25T10:17:04.517Z,34.60
2019-06-25T10:18:04.577Z,34.35
2019-06-25T10:19:57.614Z,34.33
2019-06-25T10:20:57.681Z,34.48
2019-06-25T10:22:53.021Z,34.42
2019-06-25T10:23:50.821Z,34.73
2019-06-25T10:25:43.833Z,34.61
2019-06-25T10:26:43.872Z,34.70
2019-06-25T10:28:39.448Z,34.89
2019-06-25T10:29:36.958Z,35.04
2019-06-25T10:31:29.994Z,34.88
2019-06-25T10:32:30.037Z,34.78
2019-06-25T10:34:23.071Z,34.48
2019-06-25T10:35:23.137Z,34.38
2019-06-25T10:37:16.159Z,34.61
2019-06-25T10:38:16.205Z,34.73
2019-06-25T10:40:09.278Z,35.04
2019-06-25T10:41:09.299Z,35.14
2019-06-25T10:43:02.412Z,35.15
2019-06-25T10:44:02.460Z,35.26
2019-06-25T10:45:55.484Z,35.12
2019-06-25T10:46:55.520Z,35.04
2019-06-25T10:48:48.563Z,34.77
2019-06-25T10:49:48.605Z,34.81
2019-06-25T10:51:42.151Z,35.05
2019-06-25T10:52:42.223Z,35.04
2019-06-25T10:54:35.223Z,35.24
2019-06-25T10:55:35.289Z,35.30
2019-06-25T10:57:28.314Z,35.44
2019-06-25T10:58:28.389Z,35.36
2019-06-25T11:00:21.398Z,35.29
2019-06-25T11:01:21.462Z,35.19
2019-06-25T11:03:14.520Z,35.02
2019-06-25T11:04:14.581Z,35.04
2019-06-25T11:06:07.582Z,34.96
2019-06-25T11:07:08.066Z,34.90
2019-06-25T11:09:00.695Z,35.12
2019-06-25T11:10:00.753Z,35.14
2019-06-25T11:11:53.767Z,35.14
2019-06-25T11:12:53.834Z,35.17
2019-06-25T11:14:46.850Z,35.11
2019-06-25T11:15:46.900Z,35.17
2019-06-25T11:17:43.134Z,35.05
2019-06-25T11:18:39.998Z,35.07
2019-06-25T11:20:32.992Z,35.11
2019-06-25T11:21:33.064Z,35.14
2019-06-25T11:23:26.094Z,35.15
2019-06-25T11:24:26.152Z,35.11
2019-06-25T11:26:23.258Z,35.17
2019-06-25T11:27:19.227Z,35.24
2019-06-25T11:29:12.237Z,35.11
2019-06-25T11:30:12.317Z,35.14
2019-06-25T11:32:05.341Z,35.33
2019-06-25T11:33:05.426Z,35.26
2019-06-25T11:34:58.433Z,35.52
2019-06-25T11:35:58.481Z,35.46
2019-06-25T11:37:51.490Z,35.12
2019-06-25T11:38:51.561Z,35.24
2019-06-25T11:40:44.594Z,35.26
2019-06-25T11:41:44.689Z,35.33
2019-06-25T11:43:44.289Z,35.56
2019-06-25T11:44:37.735Z,35.51
2019-06-25T11:46:30.760Z,35.58
2019-06-25T11:47:30.820Z,35.76
2019-06-25T11:49:23.840Z,35.52
2019-06-25T11:50:23.897Z,35.41
2019-06-25T11:52:16.911Z,35.56
2019-06-25T11:53:16.983Z,35.52
2019-06-25T11:55:10.122Z,35.42
2019-06-25T11:56:10.183Z,35.45
2019-06-25T11:58:03.251Z,35.66
2019-06-25T11:59:03.288Z,35.63
2019-06-25T12:00:56.827Z,35.61
2019-06-25T12:01:56.350Z,35.64
2019-06-25T12:03:49.360Z,35.70
2019-06-25T12:04:49.438Z,35.63
2019-06-25T12:06:53.423Z,35.58
2019-06-25T12:07:42.516Z,35.51
2019-06-25T12:09:35.534Z,35.53
2019-06-25T12:10:35.603Z,35.55
2019-06-25T12:12:28.637Z,35.68
2019-06-25T12:13:28.688Z,35.86
2019-06-25T12:15:21.700Z,35.73
2019-06-25T12:16:21.777Z,35.92
2019-06-25T12:18:14.805Z,35.76
2019-06-25T12:19:14.859Z,35.76
2019-06-25T12:21:07.869Z,35.88
2019-06-25T12:22:07.943Z,35.86
2019-06-25T12:24:00.985Z,36.02
2019-06-25T12:25:01.038Z,36.04
2019-06-25T12:26:56.580Z,35.89
2019-06-25T12:27:54.121Z,35.88
2019-06-25T12:29:47.148Z,35.78
2019-06-25T12:30:47.201Z,35.76
2019-06-25T12:32:40.239Z,36.01
2019-06-25T12:33:40.303Z,35.88
2019-06-25T12:35:33.329Z,35.98
2019-06-25T12:36:33.384Z,35.95
2019-06-25T12:38:26.400Z,35.88
2019-06-25T12:39:26.473Z,35.85
2019-06-25T12:41:19.513Z,35.95
2019-06-25T12:42:19.561Z,36.00
2019-06-25T12:44:12.571Z,35.98
2019-06-25T12:45:12.646Z,36.04
2019-06-25T12:47:05.670Z,36.23
2019-06-25T12:48:05.729Z,36.25
2019-06-25T12:49:58.744Z,36.25
2019-06-25T12:50:58.808Z,36.43
2019-06-25T12:52:51.870Z,36.21
2019-06-25T12:53:51.891Z,36.20
2019-06-25T12:55:44.921Z,36.20
2019-06-25T12:56:44.971Z,36.24
2019-06-25T12:58:37.995Z,36.17
2019-06-25T12:59:38.072Z,36.25
2019-06-25T13:01:40.683Z,36.14
2019-06-25T13:02:31.149Z,36.23
2019-06-25T13:04:24.182Z,36.18
2019-06-25T13:05:24.231Z,36.31
2019-06-25T13:07:25.518Z,36.43
2019-06-25T13:08:17.318Z,36.36
2019-06-25T13:10:10.364Z,36.20
2019-06-25T13:11:10.401Z,36.18
2019-06-25T13:13:03.432Z,36.25
2019-06-25T13:14:03.561Z,36.21
2019-06-25T13:15:56.545Z,35.95
2019-06-25T13:16:56.598Z,36.08
2019-06-25T13:18:49.664Z,36.08
2019-06-25T13:19:49.679Z,36.33
2019-06-25T13:21:42.706Z,36.27
2019-06-25T13:22:42.762Z,36.21
2019-06-25T13:24:35.805Z,36.18
2019-06-25T13:25:35.875Z,36.24
2019-06-25T13:27:28.876Z,36.33
2019-06-25T13:28:28.937Z,36.35
2019-06-25T13:30:21.943Z,36.46
2019-06-25T13:31:22.016Z,36.59
2019-06-25T13:33:15.039Z,36.52
2019-06-25T13:34:15.102Z,36.61
2019-06-25T13:36:08.141Z,36.61
2019-06-25T13:37:08.184Z,36.64
2019-06-25T13:39:01.216Z,36.79
2019-06-25T13:40:01.266Z,36.68
2019-06-25T13:42:04.107Z,36.72
2019-06-25T13:42:54.385Z,36.68
2019-06-25T13:44:47.403Z,36.80
2019-06-25T13:45:47.463Z,36.68
2019-06-25T13:47:40.502Z,36.64
2019-06-25T13:48:40.566Z,36.59
2019-06-25T13:50:33.620Z,36.47
2019-06-25T13:51:33.648Z,36.40
2019-06-25T13:53:26.657Z,36.45
2019-06-25T13:54:26.735Z,36.36
2019-06-25T13:56:20.033Z,36.25
2019-06-25T13:57:19.828Z,36.30
2019-06-25T13:59:12.869Z,36.23
2019-06-25T14:00:13.332Z,36.30
2019-06-25T14:02:05.996Z,36.28
2019-06-25T14:03:05.981Z,36.39
2019-06-25T14:04:58.998Z,36.45
2019-06-25T14:05:59.076Z,36.59
2019-06-25T14:07:58.962Z,36.57
2019-06-25T14:08:52.157Z,36.58
2019-06-25T14:10:45.197Z,36.68
2019-06-25T14:11:45.246Z,36.61
2019-06-25T14:13:38.273Z,36.64
2019-06-25T14:14:38.331Z,36.67
2019-06-25T14:16:31.380Z,36.73
2019-06-25T14:17:31.446Z,36.86
2019-06-25T14:19:24.485Z,36.68
2019-06-25T14:20:24.538Z,36.79
2019-06-25T14:22:17.566Z,36.98
2019-06-25T14:23:17.643Z,36.98
2019-06-25T14:25:10.672Z,37.10
2019-06-25T14:26:11.216Z,37.14
2019-06-25T14:28:03.734Z,37.13
2019-06-25T14:29:03.804Z,37.14
2019-06-25T14:30:56.837Z,37.21
2019-06-25T14:31:56.898Z,37.08
2019-06-25T14:33:49.921Z,36.91
2019-06-25T14:34:49.977Z,36.98
2019-06-25T14:36:46.012Z,36.88
2019-06-25T14:37:46.064Z,36.88
2019-06-25T14:39:39.113Z,36.86
2019-06-25T14:40:39.163Z,36.88
2019-06-25T14:42:32.173Z,37.01
2019-06-25T14:43:32.251Z,37.01
2019-06-25T14:45:25.279Z,36.99
2019-06-25T14:46:25.337Z,37.10
2019-06-25T14:48:18.375Z,37.07
2019-06-25T14:49:18.444Z,36.93
2019-06-25T14:51:11.969Z,36.84
2019-06-25T14:52:12.012Z,36.81
2019-06-25T14:54:05.035Z,36.79
2019-06-25T14:55:05.107Z,36.77
2019-06-25T14:56:58.136Z,36.76
2019-06-25T14:57:58.195Z,36.81
2019-06-25T14:59:51.210Z,36.86
2019-06-25T15:00:51.286Z,36.95
2019-06-25T15:02:44.307Z,37.01
2019-06-25T15:03:44.368Z,37.10
2019-06-25T15:05:37.376Z,37.25
2019-06-25T15:06:37.448Z,37.25
2019-06-25T15:08:31.858Z,37.28
2019-06-25T15:09:43.481Z,37.42
2019-06-25T15:11:23.583Z,37.33
2019-06-25T15:12:23.631Z,37.42
2019-06-25T15:14:16.658Z,37.49
2019-06-25T15:15:31.704Z,37.45
2019-06-25T15:17:09.738Z,37.28
2019-06-25T15:18:09.802Z,37.26
2019-06-25T15:20:02.838Z,37.26
2019-06-25T15:21:02.879Z,37.23
2019-06-25T15:22:55.994Z,37.39
2019-06-25T15:23:56.048Z,37.47
2019-06-25T15:25:49.057Z,37.47
2019-06-25T15:26:49.131Z,37.30
2019-06-25T15:28:42.157Z,37.18
2019-06-25T15:29:42.218Z,37.17
2019-06-25T15:31:35.305Z,37.15
2019-06-25T15:32:35.319Z,37.15
2019-06-25T15:34:30.397Z,37.13
2019-06-25T15:35:28.401Z,37.02
2019-06-25T15:37:21.436Z,36.99
2019-06-25T15:38:21.488Z,36.95
2019-06-25T15:40:14.499Z,36.96
2019-06-25T15:41:14.660Z,36.98
2019-06-25T15:43:07.596Z,36.80
2019-06-25T15:44:07.664Z,36.81
2019-06-25T15:46:00.672Z,36.77
2019-06-25T15:47:00.750Z,36.72
2019-06-25T15:48:53.767Z,36.62
2019-06-25T15:49:53.830Z,36.65
2019-06-25T15:51:47.355Z,36.68
2019-06-25T15:52:47.426Z,36.76
2019-06-25T15:54:40.462Z,36.77
2019-06-25T15:55:40.509Z,36.73
2019-06-25T15:57:33.516Z,36.77
2019-06-25T15:58:33.597Z,36.76
2019-06-25T16:00:26.652Z,36.77
2019-06-25T16:01:26.696Z,36.79
2019-06-25T16:03:19.706Z,36.73
2019-06-25T16:04:19.780Z,36.67
2019-06-25T16:06:12.809Z,36.57
2019-06-25T16:07:12.861Z,36.54
2019-06-25T16:09:05.887Z,36.46
2019-06-25T16:10:05.945Z,36.42
2019-06-25T16:11:58.954Z,36.36
2019-06-25T16:12:59.026Z,36.45
2019-06-25T16:14:52.058Z,36.36
2019-06-25T16:15:52.112Z,36.36
2019-06-25T16:17:45.142Z,36.35
2019-06-25T16:18:45.195Z,36.40
2019-06-25T16:20:38.229Z,36.40
2019-06-25T16:21:38.280Z,36.31
2019-06-25T16:23:31.300Z,36.21
2019-06-25T16:24:31.378Z,36.30
2019-06-25T16:26:24.394Z,36.24
2019-06-25T16:27:24.449Z,36.27
2019-06-25T16:29:17.479Z,36.24
2019-06-25T16:30:17.546Z,36.28
2019-06-25T16:32:10.548Z,36.39
2019-06-25T16:33:10.625Z,36.31
2019-06-25T16:35:03.704Z,36.28
2019-06-25T16:36:03.700Z,36.24
2019-06-25T16:37:56.738Z,36.28
2019-06-25T16:38:56.788Z,36.23
2019-06-25T16:40:49.819Z,36.25
2019-06-25T16:41:49.881Z,36.07
2019-06-25T16:43:43.000Z,36.16
2019-06-25T16:44:42.975Z,36.14
2019-06-25T16:46:36.066Z,36.25
2019-06-25T16:47:36.097Z,36.17
2019-06-25T16:49:29.098Z,36.17
2019-06-25T16:50:29.158Z,36.05
2019-06-25T16:52:22.191Z,35.98
2019-06-25T16:53:22.239Z,36.01
2019-06-25T16:55:15.268Z,35.88
2019-06-25T16:56:15.310Z,35.89
2019-06-25T16:58:08.321Z,35.93
2019-06-25T16:59:08.392Z,35.95
2019-06-25T17:01:01.423Z,35.89
2019-06-25T17:02:01.471Z,35.92
2019-06-25T17:03:54.487Z,35.88
2019-06-25T17:04:54.566Z,35.90
2019-06-25T17:06:47.599Z,35.86
2019-06-25T17:07:47.653Z,35.86
2019-06-25T17:09:40.680Z,35.88
2019-06-25T17:10:40.739Z,35.95
2019-06-25T17:12:33.834Z,35.73
2019-06-25T17:13:33.868Z,35.88
2019-06-25T17:15:26.877Z,35.76
2019-06-25T17:16:26.948Z,35.80
2019-06-25T17:18:20.001Z,35.71
2019-06-25T17:19:20.053Z,35.68
2019-06-25T17:21:13.075Z,35.68
2019-06-25T17:22:13.137Z,35.68
2019-06-25T17:24:07.479Z,35.71
2019-06-25T17:25:06.216Z,35.70
2019-06-25T17:26:59.247Z,35.78
2019-06-25T17:27:59.302Z,35.78
2019-06-25T17:29:52.384Z,35.73
2019-06-25T17:30:52.435Z,35.61
2019-06-25T17:32:45.454Z,35.61
2019-06-25T17:33:45.529Z,35.61
2019-06-25T17:35:38.553Z,35.63
2019-06-25T17:36:38.609Z,35.70
2019-06-25T17:38:31.658Z,35.49
2019-06-25T17:39:31.704Z,35.53
2019-06-25T17:41:24.723Z,35.42
2019-06-25T17:42:24.799Z,35.46
2019-06-25T17:44:17.816Z,35.46
2019-06-25T17:45:17.869Z,35.48
2019-06-25T17:47:10.940Z,35.39
2019-06-25T17:48:14.413Z,35.31
2019-06-25T17:50:03.991Z,35.30
2019-06-25T17:51:04.062Z,35.37
2019-06-25T17:52:57.161Z,35.22
2019-06-25T17:53:57.191Z,35.14
2019-06-25T17:55:50.199Z,35.14
2019-06-25T17:56:50.285Z,35.19
2019-06-25T17:58:43.315Z,35.08
2019-06-25T17:59:43.379Z,35.15
2019-06-25T18:01:37.914Z,35.08
2019-06-25T18:02:37.940Z,35.05
2019-06-25T18:04:56.813Z,35.02
2019-06-25T18:06:03.765Z,34.95
2019-06-25T18:08:02.154Z,34.92
2019-06-25T18:09:02.107Z,34.89
2019-06-25T18:11:07.724Z,34.89
2019-06-25T18:12:07.766Z,34.83
2019-06-25T18:14:12.520Z,34.81
2019-06-25T18:15:12.563Z,34.93
2019-06-25T18:17:05.556Z,34.80
2019-06-25T18:18:05.933Z,34.74
2019-06-25T18:19:58.814Z,34.74
2019-06-25T18:20:58.803Z,34.67
2019-06-25T18:22:51.906Z,34.66
2019-06-25T18:23:51.944Z,34.73
2019-06-25T18:25:44.971Z,34.60
2019-06-25T18:26:45.029Z,34.62
2019-06-25T18:28:38.054Z,34.60
2019-06-25T18:29:38.222Z,34.42
2019-06-25T18:31:31.168Z,34.36
2019-06-25T18:32:31.247Z,34.24
2019-06-25T18:34:24.245Z,34.14
2019-06-25T18:35:24.312Z,34.17